Time;durP1;ratioP1;P1;durP2;ratioP2;P2;SDS_P1;SDS_P2;PMS_P1;PMS_P2;Temp;Humidity;BMP_temperature;BMP_pressure;BME280_temperature;BME280_humidity;BME280_pressure;Samples;Min_cycle;Max_cycle;Signal;HPM_P1;HPM_P2
2021/12/12 00:01:35;;;;;;;1.20;0.80;;;3.90;99.90;;;;;;5056812;28;20773;-59
2021/12/12 00:04:12;;;;;;;1.93;0.60;;;3.90;99.90;;;;;;5058253;28;20462;-59
2021/12/12 00:06:45;;;;;;;1.90;0.77;;;3.90;99.90;;;;;;5058372;28;20812;-58
2021/12/12 00:09:17;;;;;;;1.80;0.83;;;4.00;99.90;;;;;;5056732;28;20542;-58
2021/12/12 00:11:44;;;;;;;1.40;0.80;;;4.00;99.90;;;;;;5046228;28;20952;-59
2021/12/12 00:14:15;;;;;;;4.17;1.00;;;4.00;99.90;;;;;;5055639;28;20547;-58
2021/12/12 00:16:43;;;;;;;2.07;0.77;;;3.90;99.90;;;;;;5054473;28;20490;-58
2021/12/12 00:19:12;;;;;;;2.23;1.00;;;4.00;99.90;;;;;;5055948;28;20613;-58
2021/12/12 00:21:43;;;;;;;1.43;0.73;;;3.90;99.90;;;;;;5055385;28;20622;-58
2021/12/12 00:24:13;;;;;;;1.40;0.70;;;3.90;99.90;;;;;;5053642;28;20491;-58
2021/12/12 00:26:40;;;;;;;0.87;0.67;;;4.00;99.90;;;;;;5054440;28;20948;-58
2021/12/12 00:29:08;;;;;;;2.40;1.00;;;4.00;99.90;;;;;;5054808;28;20839;-58
2021/12/12 00:31:36;;;;;;;2.53;0.80;;;4.00;99.90;;;;;;5054349;28;21008;-58
2021/12/12 00:34:03;;;;;;;2.03;0.83;;;4.00;99.90;;;;;;5055655;28;20525;-57
2021/12/12 00:36:32;;;;;;;2.77;0.73;;;4.00;99.90;;;;;;5055735;28;20554;-58
2021/12/12 00:39:03;;;;;;;2.60;0.80;;;4.00;99.90;;;;;;5055784;28;20448;-58
2021/12/12 00:41:41;;;;;;;1.87;0.80;;;4.00;99.90;;;;;;5056382;28;20550;-58
2021/12/12 00:44:10;;;;;;;1.50;0.80;;;4.00;99.90;;;;;;5057076;28;20445;-58
2021/12/12 00:46:38;;;;;;;1.23;0.70;;;4.00;99.90;;;;;;5058259;28;20456;-59
2021/12/12 00:49:05;;;;;;;1.30;0.80;;;4.00;99.90;;;;;;5057658;28;20880;-59
2021/12/12 00:51:38;;;;;;;1.40;0.90;;;4.00;99.90;;;;;;5057936;28;20916;-59
2021/12/12 00:54:06;;;;;;;1.20;0.83;;;4.00;99.90;;;;;;5057611;28;20526;-59
2021/12/12 00:56:33;;;;;;;1.23;0.70;;;4.10;99.90;;;;;;5057398;28;20561;-59
2021/12/12 00:59:00;;;;;;;1.00;0.60;;;4.10;99.90;;;;;;5057183;28;20547;-59
2021/12/12 01:01:39;;;;;;;1.30;0.80;;;4.10;99.90;;;;;;5056963;28;20824;-58
2021/12/12 01:04:13;;;;;;;1.43;0.90;;;4.10;99.90;;;;;;5055940;28;20448;-59
2021/12/12 01:06:43;;;;;;;1.10;0.60;;;4.10;99.90;;;;;;5055736;28;20851;-58
2021/12/12 01:09:16;;;;;;;2.40;0.60;;;4.20;99.90;;;;;;5054509;28;20960;-58
2021/12/12 01:11:49;;;;;;;2.10;0.70;;;4.30;99.90;;;;;;5054167;28;20494;-58
2021/12/12 01:14:23;;;;;;;0.87;0.60;;;4.30;99.90;;;;;;5053530;28;20447;-58
2021/12/12 01:16:55;;;;;;;1.97;0.87;;;4.40;99.90;;;;;;5053140;28;20457;-58
2021/12/12 01:19:26;;;;;;;1.50;0.97;;;4.40;99.90;;;;;;5052376;28;20819;-58
2021/12/12 01:21:59;;;;;;;1.67;0.97;;;4.40;99.90;;;;;;5052336;28;20465;-58
2021/12/12 01:24:30;;;;;;;1.30;0.70;;;4.30;99.90;;;;;;5054866;28;20482;-58
2021/12/12 01:27:01;;;;;;;1.20;0.80;;;4.30;99.90;;;;;;5053658;28;20750;-58
2021/12/12 01:29:29;;;;;;;2.20;0.80;;;4.40;99.90;;;;;;5051740;28;20551;-58
2021/12/12 01:31:59;;;;;;;1.20;0.80;;;4.30;99.90;;;;;;5052712;28;20501;-58
2021/12/12 01:34:30;;;;;;;1.20;0.70;;;4.20;99.90;;;;;;5053130;28;20451;-58
2021/12/12 01:37:22;;;;;;;1.20;0.87;;;4.30;99.90;;;;;;5053367;28;20929;-58
2021/12/12 01:39:49;;;;;;;3.67;0.90;;;4.20;99.90;;;;;;5054998;28;20452;-58
2021/12/12 01:42:23;;;;;;;2.20;0.80;;;4.10;99.90;;;;;;5054588;28;20533;-58
2021/12/12 01:44:52;;;;;;;2.07;0.70;;;4.20;99.90;;;;;;5055623;28;20443;-58
2021/12/12 01:47:23;;;;;;;1.10;0.70;;;4.10;99.90;;;;;;5056987;28;20940;-58
2021/12/12 01:49:53;;;;;;;4.87;1.00;;;4.10;99.90;;;;;;5057118;28;20522;-58
2021/12/12 01:52:24;;;;;;;1.40;0.80;;;4.00;99.90;;;;;;5056321;28;20967;-58
2021/12/12 01:54:54;;;;;;;1.83;0.80;;;4.10;99.90;;;;;;5055962;28;20451;-58
2021/12/12 01:57:25;;;;;;;1.50;0.80;;;4.10;99.90;;;;;;5056926;28;20490;-59
2021/12/12 01:59:54;;;;;;;4.70;0.70;;;4.10;99.90;;;;;;5056757;28;20844;-59
2021/12/12 02:02:28;;;;;;;1.33;0.70;;;4.10;99.90;;;;;;5056806;28;20550;-58
2021/12/12 02:04:57;;;;;;;3.03;0.87;;;4.20;99.90;;;;;;5056280;28;20534;-58
2021/12/12 02:07:29;;;;;;;1.67;0.80;;;4.20;99.90;;;;;;5055412;28;20521;-59
2021/12/12 02:10:00;;;;;;;1.90;0.70;;;4.20;99.90;;;;;;5055364;28;20535;-58
2021/12/12 02:12:28;;;;;;;1.63;0.80;;;4.20;99.90;;;;;;5056656;28;20590;-58
2021/12/12 02:14:57;;;;;;;1.83;0.87;;;4.10;99.90;;;;;;5056327;28;20530;-58
2021/12/12 02:17:33;;;;;;;1.30;0.80;;;4.10;99.90;;;;;;5056762;28;20462;-59
2021/12/12 02:20:11;;;;;;;2.20;1.10;;;4.10;99.90;;;;;;5056212;28;20858;-60
2021/12/12 02:22:55;;;;;;;2.43;0.73;;;4.10;99.90;;;;;;5055986;28;20470;-58
2021/12/12 02:36:34;;;;;;;0.90;0.70;;;4.00;99.90;;;;;;5013516;28;20518;-58
2021/12/12 02:39:08;;;;;;;2.73;0.63;;;4.10;99.90;;;;;;5054138;28;20892;-58
2021/12/12 02:41:35;;;;;;;2.23;0.60;;;4.00;99.90;;;;;;5052710;28;20455;-58
2021/12/12 02:44:06;;;;;;;7.60;0.80;;;4.00;99.90;;;;;;5054075;28;20538;-58
2021/12/12 02:46:36;;;;;;;1.57;0.60;;;4.00;99.90;;;;;;5054594;28;20941;-59
2021/12/12 02:49:11;;;;;;;1.63;0.60;;;4.00;99.90;;;;;;5053905;28;20850;-58
2021/12/12 02:51:39;;;;;;;1.10;0.60;;;4.00;99.90;;;;;;5053560;28;20486;-58
2021/12/12 02:54:09;;;;;;;1.47;0.70;;;4.00;99.90;;;;;;5054580;28;20927;-58
2021/12/12 02:56:41;;;;;;;0.80;0.60;;;4.00;99.90;;;;;;5056269;28;20546;-58
2021/12/12 02:59:11;;;;;;;1.27;0.50;;;3.90;99.90;;;;;;5054877;28;20541;-60
2021/12/12 03:01:42;;;;;;;1.00;0.60;;;3.90;99.90;;;;;;5054536;28;20520;-59
2021/12/12 03:04:09;;;;;;;0.80;0.50;;;3.90;99.90;;;;;;5054558;28;20546;-59
2021/12/12 03:06:40;;;;;;;1.10;0.70;;;3.90;99.90;;;;;;5054306;28;20862;-59
2021/12/12 03:09:13;;;;;;;1.50;0.60;;;3.90;99.90;;;;;;5052595;28;20566;-59
2021/12/12 03:11:40;;;;;;;1.03;0.57;;;3.90;99.90;;;;;;5052748;28;20902;-59
2021/12/12 03:14:07;;;;;;;2.80;0.73;;;3.90;99.90;;;;;;5053191;28;20531;-59
2021/12/12 03:16:35;;;;;;;0.70;0.43;;;3.80;99.90;;;;;;5053796;28;20490;-59
2021/12/12 03:19:03;;;;;;;1.27;0.60;;;3.80;99.90;;;;;;5053730;28;20783;-58
2021/12/12 03:21:35;;;;;;;1.30;0.50;;;3.80;99.90;;;;;;5052830;28;20765;-59
2021/12/12 03:24:07;;;;;;;1.57;0.40;;;3.70;99.90;;;;;;5052930;28;20550;-59
2021/12/12 03:26:37;;;;;;;1.13;0.60;;;3.70;99.90;;;;;;5052917;28;20465;-58
2021/12/12 03:29:06;;;;;;;1.00;0.63;;;3.60;99.90;;;;;;5052671;28;20526;-59
2021/12/12 03:31:36;;;;;;;1.27;0.73;;;3.50;99.90;;;;;;5052842;28;20520;-59
2021/12/12 03:34:06;;;;;;;1.23;0.60;;;3.50;99.90;;;;;;5052455;28;20555;-58
2021/12/12 03:36:34;;;;;;;1.57;0.60;;;3.50;99.90;;;;;;5052588;28;21008;-58
2021/12/12 03:39:05;;;;;;;0.93;0.50;;;3.40;99.90;;;;;;5051887;28;20533;-58
2021/12/12 03:41:36;;;;;;;2.60;0.60;;;3.40;99.90;;;;;;5052028;28;20448;-58
2021/12/12 03:44:08;;;;;;;1.57;0.60;;;3.40;99.90;;;;;;5053696;28;20483;-58
2021/12/12 03:46:36;;;;;;;2.53;0.53;;;3.30;99.90;;;;;;5054065;28;20526;-57
2021/12/12 03:49:05;;;;;;;0.73;0.50;;;3.30;99.90;;;;;;5054457;28;20513;-58
2021/12/12 03:51:33;;;;;;;1.13;0.67;;;3.30;99.90;;;;;;5054686;28;20932;-58
2021/12/12 03:54:00;;;;;;;1.30;0.50;;;3.30;99.90;;;;;;5058869;28;20544;-58
2021/12/12 03:56:27;;;;;;;1.13;0.53;;;3.40;99.90;;;;;;5059007;28;20935;-59
2021/12/12 03:58:57;;;;;;;1.17;0.50;;;3.40;99.90;;;;;;5059116;28;20501;-61
2021/12/12 04:01:28;;;;;;;2.20;0.60;;;3.40;99.90;;;;;;5058732;28;20924;-59
2021/12/12 04:03:57;;;;;;;1.20;0.60;;;3.30;99.90;;;;;;5058546;28;20908;-59
2021/12/12 04:06:27;;;;;;;1.23;0.60;;;3.20;99.90;;;;;;5058939;28;20546;-59
2021/12/12 04:08:55;;;;;;;1.63;0.70;;;3.20;99.90;;;;;;5058926;28;20541;-59
2021/12/12 04:11:24;;;;;;;0.70;0.57;;;3.10;99.90;;;;;;5058762;28;20965;-59
2021/12/12 04:13:54;;;;;;;1.47;0.50;;;3.00;99.90;;;;;;5059141;28;20461;-59
2021/12/12 04:16:25;;;;;;;1.43;0.60;;;3.00;99.90;;;;;;5058848;28;20895;-59
2021/12/12 04:18:52;;;;;;;1.40;0.70;;;2.90;99.90;;;;;;5057972;28;20474;-59
2021/12/12 04:21:22;;;;;;;0.90;0.50;;;2.90;99.90;;;;;;5057902;28;20465;-59
2021/12/12 04:23:49;;;;;;;1.27;0.70;;;2.80;99.90;;;;;;5057375;28;20428;-58
2021/12/12 04:26:20;;;;;;;1.20;0.57;;;2.70;99.90;;;;;;5056787;28;20858;-59
2021/12/12 04:28:58;;;;;;;0.80;0.43;;;2.70;99.90;;;;;;5056907;28;20486;-58
2021/12/12 04:31:27;;;;;;;0.90;0.50;;;2.70;99.90;;;;;;5056891;28;20482;-59
2021/12/12 04:33:55;;;;;;;1.30;0.60;;;2.60;99.90;;;;;;5056533;28;20518;-59
2021/12/12 04:36:26;;;;;;;0.80;0.50;;;2.50;99.90;;;;;;5056440;28;20516;-59
2021/12/12 04:39:04;;;;;;;1.07;0.50;;;2.50;99.90;;;;;;5056168;28;20425;-59
2021/12/12 04:41:31;;;;;;;0.97;0.50;;;2.50;99.90;;;;;;5058332;28;20465;-58
2021/12/12 04:43:58;;;;;;;1.17;0.70;;;2.50;99.90;;;;;;5058500;28;20817;-58
2021/12/12 04:46:37;;;;;;;3.23;0.70;;;2.50;99.90;;;;;;5056321;28;20936;-58
2021/12/12 04:51:58;;;;;;;1.00;0.50;;;2.50;99.90;;;;;;5056337;28;20462;-58
2021/12/12 04:54:36;;;;;;;1.07;0.50;;;2.40;99.90;;;;;;5057337;28;20573;-58
2021/12/12 04:57:11;;;;;;;1.37;0.70;;;2.40;99.90;;;;;;5057360;28;20819;-59
2021/12/12 04:59:43;;;;;;;1.43;0.50;;;2.40;99.90;;;;;;5056928;28;20905;-59
2021/12/12 05:02:18;;;;;;;3.17;0.60;;;2.40;99.90;;;;;;5056157;28;20502;-58
2021/12/12 05:04:53;;;;;;;0.73;0.57;;;2.40;99.90;;;;;;5056702;28;20418;-58
2021/12/12 05:07:25;;;;;;;0.80;0.40;;;2.40;99.90;;;;;;5057824;28;20529;-58
2021/12/12 05:09:55;;;;;;;1.37;0.60;;;2.40;99.90;;;;;;5057480;28;20444;-58
2021/12/12 05:12:26;;;;;;;0.97;0.73;;;2.50;99.90;;;;;;5057555;28;20549;-59
2021/12/12 05:15:01;;;;;;;1.27;0.60;;;2.50;99.90;;;;;;5056313;28;20453;-58
2021/12/12 05:17:36;;;;;;;0.97;0.50;;;2.50;99.90;;;;;;5057821;28;20838;-58
2021/12/12 05:20:08;;;;;;;1.10;0.47;;;2.60;99.90;;;;;;5057487;28;20421;-58
2021/12/12 05:22:39;;;;;;;1.00;0.40;;;2.60;99.90;;;;;;5057557;28;20550;-58
2021/12/12 05:25:09;;;;;;;0.83;0.50;;;2.50;99.90;;;;;;5057062;28;20482;-59
2021/12/12 05:27:38;;;;;;;1.63;0.40;;;2.40;99.90;;;;;;5055885;28;20430;-59
2021/12/12 05:30:11;;;;;;;0.90;0.37;;;2.40;99.90;;;;;;5055916;28;20540;-58
2021/12/12 05:32:40;;;;;;;2.50;0.60;;;2.30;99.90;;;;;;5055246;28;20491;-58
2021/12/12 05:35:10;;;;;;;1.00;0.40;;;2.40;99.90;;;;;;5055934;28;20447;-58
2021/12/12 05:37:38;;;;;;;0.90;0.60;;;2.30;99.90;;;;;;5055827;28;20494;-58
2021/12/12 05:40:09;;;;;;;0.80;0.50;;;2.30;99.90;;;;;;5055842;28;20447;-58
2021/12/12 05:42:38;;;;;;;0.67;0.30;;;2.30;99.90;;;;;;5055472;28;20977;-58
2021/12/12 05:45:08;;;;;;;1.10;0.50;;;2.20;99.90;;;;;;5055630;28;20963;-58
2021/12/12 05:47:35;;;;;;;1.00;0.50;;;2.20;99.90;;;;;;5056095;28;20542;-58
2021/12/12 05:50:06;;;;;;;0.60;0.40;;;2.20;99.90;;;;;;5057051;28;20453;-58
2021/12/12 05:52:33;;;;;;;0.97;0.43;;;2.20;99.90;;;;;;5056189;28;20459;-58
2021/12/12 05:55:02;;;;;;;2.50;0.50;;;2.20;99.90;;;;;;5057052;28;20531;-57
2021/12/12 05:57:30;;;;;;;1.90;0.40;;;2.20;99.90;;;;;;5057039;28;20553;-58
2021/12/12 05:59:59;;;;;;;2.10;0.53;;;2.30;99.90;;;;;;5057420;28;20443;-58
2021/12/12 06:02:28;;;;;;;0.63;0.40;;;2.30;99.90;;;;;;5055585;28;20502;-58
2021/12/12 06:04:56;;;;;;;0.80;0.40;;;2.30;99.90;;;;;;5055358;28;20934;-58
2021/12/12 06:07:26;;;;;;;0.97;0.40;;;2.30;99.90;;;;;;5056245;28;20459;-59
2021/12/12 06:09:53;;;;;;;1.20;0.60;;;2.30;99.90;;;;;;5056970;28;20526;-58
2021/12/12 06:12:21;;;;;;;0.90;0.50;;;2.30;99.90;;;;;;5056366;28;20969;-58
2021/12/12 06:14:49;;;;;;;3.97;0.40;;;2.30;99.90;;;;;;5055455;28;21005;-58
2021/12/12 06:17:17;;;;;;;0.87;0.40;;;2.30;99.90;;;;;;5055133;28;20520;-59
2021/12/12 06:19:46;;;;;;;0.90;0.50;;;2.30;99.90;;;;;;5055322;28;20940;-59
2021/12/12 06:22:13;;;;;;;1.33;0.50;;;2.30;99.90;;;;;;5054691;28;20486;-59
2021/12/12 06:24:43;;;;;;;1.73;0.50;;;2.30;99.90;;;;;;5053914;28;20820;-58
2021/12/12 06:27:12;;;;;;;1.70;0.60;;;2.30;99.90;;;;;;5054165;28;20451;-59
2021/12/12 06:29:40;;;;;;;1.10;0.60;;;2.30;99.90;;;;;;5054025;28;20542;-59
2021/12/12 06:32:11;;;;;;;0.80;0.60;;;2.30;99.90;;;;;;5054204;28;20758;-59
2021/12/12 06:34:38;;;;;;;0.87;0.50;;;2.30;99.90;;;;;;5053497;28;20989;-58
2021/12/12 06:37:06;;;;;;;1.20;0.60;;;2.30;99.90;;;;;;5053814;28;20437;-58
2021/12/12 06:39:36;;;;;;;1.20;0.60;;;2.20;99.90;;;;;;5054110;28;20534;-58
2021/12/12 06:42:12;;;;;;;2.17;0.63;;;2.20;99.90;;;;;;5054019;28;20454;-58
2021/12/12 06:44:40;;;;;;;1.10;0.40;;;2.20;99.90;;;;;;5055334;28;20522;-58
2021/12/12 06:47:08;;;;;;;0.77;0.43;;;2.10;99.90;;;;;;5055881;28;20906;-59
2021/12/12 06:49:38;;;;;;;1.00;0.60;;;2.20;99.90;;;;;;5055521;28;20465;-58
2021/12/12 06:52:08;;;;;;;1.13;0.60;;;2.20;99.90;;;;;;5055673;28;20452;-58
2021/12/12 06:54:41;;;;;;;0.93;0.47;;;2.20;99.90;;;;;;5055624;28;20464;-58
2021/12/12 06:57:19;;;;;;;0.70;0.40;;;2.20;99.90;;;;;;5055567;28;20459;-58
2021/12/12 06:59:50;;;;;;;1.03;0.40;;;2.20;99.90;;;;;;5047518;28;20453;-58
2021/12/12 07:02:23;;;;;;;0.90;0.60;;;2.10;99.90;;;;;;5055009;28;20550;-58
2021/12/12 07:04:53;;;;;;;1.10;0.60;;;2.10;99.90;;;;;;5053685;28;20439;-59
2021/12/12 07:07:25;;;;;;;1.20;0.70;;;2.10;99.90;;;;;;5053357;28;20549;-58
2021/12/12 07:09:52;;;;;;;0.80;0.50;;;2.10;99.90;;;;;;5053433;28;20422;-58
2021/12/12 07:12:22;;;;;;;0.93;0.60;;;2.10;99.90;;;;;;5053933;28;20890;-58
2021/12/12 07:14:51;;;;;;;1.10;0.60;;;2.10;99.90;;;;;;5054268;28;20518;-58
2021/12/12 07:17:19;;;;;;;2.63;0.53;;;2.00;99.90;;;;;;5054536;28;20499;-58
2021/12/12 07:19:46;;;;;;;1.20;0.53;;;2.00;99.90;;;;;;5055512;28;20500;-59
2021/12/12 07:22:14;;;;;;;1.27;0.53;;;2.00;99.90;;;;;;5055688;28;20429;-58
2021/12/12 07:24:43;;;;;;;1.40;0.70;;;2.00;99.90;;;;;;5056205;28;20746;-60
2021/12/12 07:27:11;;;;;;;2.13;0.70;;;2.00;99.90;;;;;;5058675;28;20430;-58
2021/12/12 07:29:39;;;;;;;0.70;0.50;;;2.00;99.90;;;;;;5059676;28;20542;-60
2021/12/12 07:32:08;;;;;;;0.93;0.60;;;2.00;99.90;;;;;;5060198;28;20466;-58
2021/12/12 07:34:36;;;;;;;1.37;0.60;;;2.00;99.90;;;;;;5058759;28;20575;-60
2021/12/12 07:37:06;;;;;;;1.20;0.67;;;2.00;99.90;;;;;;5057566;28;20491;-58
2021/12/12 07:39:33;;;;;;;1.27;0.60;;;2.00;99.90;;;;;;5057311;28;20453;-58
2021/12/12 07:42:05;;;;;;;1.23;0.50;;;2.00;99.90;;;;;;5058148;28;20524;-58
2021/12/12 07:44:35;;;;;;;0.90;0.70;;;2.00;99.90;;;;;;5058781;28;20503;-58
2021/12/12 07:47:05;;;;;;;1.87;0.50;;;2.00;99.90;;;;;;5058851;28;20459;-58
2021/12/12 07:49:36;;;;;;;2.13;0.70;;;2.00;99.90;;;;;;5058926;28;20501;-58
2021/12/12 07:52:05;;;;;;;1.07;0.60;;;1.90;99.90;;;;;;5059171;28;20479;-58
2021/12/12 07:54:33;;;;;;;0.90;0.47;;;2.00;99.90;;;;;;5058010;28;20548;-58
2021/12/12 07:57:01;;;;;;;2.00;0.60;;;1.90;99.90;;;;;;5059209;28;20459;-58
2021/12/12 07:59:29;;;;;;;1.40;0.60;;;2.00;99.90;;;;;;5057688;28;20545;-58
2021/12/12 08:01:57;;;;;;;1.23;0.50;;;2.10;99.90;;;;;;5056893;28;20557;-58
2021/12/12 08:04:28;;;;;;;0.73;0.40;;;2.20;99.90;;;;;;5057652;28;20458;-58
2021/12/12 08:06:57;;;;;;;1.10;0.60;;;2.20;99.90;;;;;;5057108;28;20888;-58
2021/12/12 08:09:26;;;;;;;1.17;0.50;;;2.30;99.90;;;;;;5056920;28;20529;-58
2021/12/12 08:11:53;;;;;;;1.17;0.60;;;2.40;99.90;;;;;;5056647;28;20813;-59
2021/12/12 08:14:24;;;;;;;1.57;0.80;;;2.50;99.90;;;;;;5056887;28;20797;-58
2021/12/12 08:16:52;;;;;;;0.83;0.60;;;2.50;99.90;;;;;;5056809;28;20490;-59
2021/12/12 08:19:21;;;;;;;1.00;0.53;;;2.50;99.90;;;;;;5056695;28;20451;-58
2021/12/12 08:21:50;;;;;;;0.87;0.60;;;2.70;99.90;;;;;;5057193;28;20529;-58
2021/12/12 08:24:17;;;;;;;1.00;0.47;;;2.80;99.90;;;;;;5057535;28;20601;-58
2021/12/12 08:26:46;;;;;;;0.70;0.50;;;2.80;99.90;;;;;;5049250;28;20545;-58
2021/12/12 08:29:15;;;;;;;0.67;0.30;;;2.90;99.90;;;;;;5058967;28;20537;-58
2021/12/12 08:31:42;;;;;;;1.47;0.63;;;2.90;99.90;;;;;;5058635;28;20799;-58
2021/12/12 08:34:11;;;;;;;1.20;0.50;;;3.00;99.90;;;;;;5056461;28;20552;-58
2021/12/12 08:36:40;;;;;;;0.80;0.50;;;3.00;99.90;;;;;;5054729;28;20516;-58
2021/12/12 08:39:11;;;;;;;1.00;0.40;;;3.10;99.90;;;;;;5051512;28;20517;-59
2021/12/12 08:41:39;;;;;;;2.37;0.60;;;3.20;99.90;;;;;;5057799;28;20529;-58
2021/12/12 08:44:09;;;;;;;0.50;0.40;;;3.20;99.90;;;;;;5055781;28;20420;-58
2021/12/12 08:46:38;;;;;;;0.83;0.50;;;3.30;99.90;;;;;;5055926;28;20483;-59
2021/12/12 08:49:11;;;;;;;0.90;0.50;;;3.20;99.90;;;;;;5050699;28;20450;-59
2021/12/12 08:51:42;;;;;;;0.50;0.30;;;3.20;99.90;;;;;;5055667;28;20454;-59
2021/12/12 08:54:22;;;;;;;0.97;0.30;;;3.20;99.90;;;;;;5055338;28;20453;-59
2021/12/12 08:56:50;;;;;;;0.70;0.40;;;3.20;99.90;;;;;;5056589;28;20579;-59
2021/12/12 08:59:21;;;;;;;0.70;0.33;;;3.30;99.90;;;;;;5051644;28;20462;-59
2021/12/12 09:01:51;;;;;;;0.60;0.33;;;3.30;99.90;;;;;;5056966;28;20462;-59
2021/12/12 09:04:18;;;;;;;0.83;0.33;;;3.40;99.90;;;;;;5055642;28;20453;-60
2021/12/12 09:06:54;;;;;;;1.13;0.40;;;3.40;99.90;;;;;;5052693;28;20459;-59
2021/12/12 09:09:25;;;;;;;1.03;0.50;;;3.40;99.90;;;;;;5052824;28;20513;-60
2021/12/12 09:11:59;;;;;;;1.47;0.40;;;3.40;99.90;;;;;;5055823;28;20459;-60
2021/12/12 09:14:32;;;;;;;0.80;0.30;;;3.40;99.90;;;;;;5054691;28;20491;-59
2021/12/12 09:17:06;;;;;;;0.57;0.40;;;3.50;99.90;;;;;;5053682;28;20474;-59
2021/12/12 09:19:41;;;;;;;2.20;0.33;;;3.50;99.90;;;;;;5048800;28;20425;-61
2021/12/12 09:22:12;;;;;;;0.90;0.50;;;3.50;99.90;;;;;;5054839;28;20516;-60
2021/12/12 09:24:46;;;;;;;2.20;0.40;;;3.40;99.90;;;;;;5051753;28;22480;-60
2021/12/12 09:27:19;;;;;;;3.77;1.20;;;3.50;99.90;;;;;;5047864;28;20455;-58
2021/12/12 09:29:53;;;;;;;3.30;0.40;;;3.50;99.90;;;;;;5054653;28;20802;-59
2021/12/12 09:32:30;;;;;;;0.47;0.30;;;3.50;99.90;;;;;;5053972;28;20455;-60
2021/12/12 09:35:05;;;;;;;0.50;0.33;;;3.50;99.90;;;;;;5055277;28;20449;-58
2021/12/12 09:37:39;;;;;;;0.57;0.30;;;3.60;99.90;;;;;;5055738;28;20517;-59
2021/12/12 09:40:26;;;;;;;0.50;0.20;;;3.60;99.90;;;;;;5044817;28;20915;-58
2021/12/12 09:43:15;;;;;;;0.60;0.40;;;3.70;99.90;;;;;;5047571;28;20466;-59
2021/12/12 09:45:55;;;;;;;0.57;0.30;;;3.70;99.90;;;;;;5046830;28;20426;-59
2021/12/12 09:52:11;;;;;;;0.50;0.20;;;3.80;99.90;;;;;;5056071;28;20498;-59
2021/12/12 09:54:47;;;;;;;0.63;0.30;;;3.90;99.90;;;;;;5050555;28;20834;-59
2021/12/12 09:57:22;;;;;;;0.73;0.40;;;4.00;99.90;;;;;;5061377;28;20723;-60
2021/12/12 10:00:04;;;;;;;0.57;0.30;;;4.10;99.90;;;;;;5036017;28;20450;-59
2021/12/12 10:02:46;;;;;;;0.50;0.30;;;4.20;99.90;;;;;;5053421;28;20934;-59
2021/12/12 10:05:25;;;;;;;0.60;0.30;;;4.30;99.90;;;;;;5056143;28;20572;-59
2021/12/12 10:08:01;;;;;;;0.60;0.30;;;4.40;99.90;;;;;;5067630;28;20449;-59
2021/12/12 10:10:33;;;;;;;0.70;0.30;;;4.30;99.90;;;;;;5057077;28;20445;-59
2021/12/12 10:13:08;;;;;;;1.07;0.33;;;4.40;99.90;;;;;;5057299;28;20513;-59
2021/12/12 10:15:45;;;;;;;0.53;0.30;;;4.40;99.90;;;;;;5057835;28;20952;-59
2021/12/12 10:18:21;;;;;;;0.50;0.20;;;4.50;99.90;;;;;;5054889;28;20921;-60
2021/12/12 10:20:53;;;;;;;0.47;0.20;;;4.50;99.90;;;;;;5054992;28;20548;-60
2021/12/12 10:23:37;;;;;;;0.67;0.40;;;4.50;99.90;;;;;;5052847;28;20974;-60
2021/12/12 10:26:10;;;;;;;0.40;0.20;;;4.50;99.90;;;;;;5044118;28;20546;-59
2021/12/12 10:28:49;;;;;;;0.60;0.40;;;4.60;99.90;;;;;;5052472;28;20975;-61
2021/12/12 10:31:24;;;;;;;0.40;0.30;;;4.60;99.90;;;;;;5051749;28;20857;-60
2021/12/12 10:33:56;;;;;;;0.90;0.30;;;4.70;99.90;;;;;;5051645;28;20830;-59
2021/12/12 10:36:27;;;;;;;1.23;0.30;;;4.80;99.90;;;;;;5042260;28;20501;-60
2021/12/12 10:38:58;;;;;;;0.50;0.30;;;4.80;99.90;;;;;;5044118;28;20538;-60
2021/12/12 10:41:29;;;;;;;0.50;0.27;;;4.80;99.90;;;;;;5039533;28;20574;-61
2021/12/12 10:44:03;;;;;;;0.50;0.23;;;4.90;99.90;;;;;;5045963;28;20554;-60
2021/12/12 10:46:39;;;;;;;0.30;0.17;;;4.90;99.90;;;;;;5042917;28;20451;-60
2021/12/12 10:49:23;;;;;;;3.30;0.40;;;4.90;99.90;;;;;;5039889;28;20760;-60
2021/12/12 10:52:02;;;;;;;1.33;0.40;;;5.00;99.90;;;;;;5051371;28;20487;-58
2021/12/12 10:54:47;;;;;;;2.00;0.37;;;5.10;99.90;;;;;;5052502;28;20841;-59
2021/12/12 10:57:18;;;;;;;0.67;0.40;;;5.10;99.90;;;;;;5052479;28;20824;-60
2021/12/12 10:59:55;;;;;;;6.50;0.40;;;5.20;99.90;;;;;;5051894;28;20452;-59
2021/12/12 11:02:27;;;;;;;0.67;0.40;;;5.30;99.90;;;;;;5052442;28;20800;-60
2021/12/12 11:05:01;;;;;;;0.90;0.40;;;5.30;99.90;;;;;;5052146;28;20709;-59
2021/12/12 11:07:33;;;;;;;0.50;0.30;;;5.40;99.90;;;;;;5051796;28;20486;-59
2021/12/12 11:10:13;;;;;;;1.47;0.30;;;5.60;99.90;;;;;;5052932;28;20940;-59
2021/12/12 11:12:49;;;;;;;0.90;0.30;;;5.60;99.90;;;;;;5053403;28;20455;-59
2021/12/12 11:15:27;;;;;;;0.50;0.30;;;5.70;99.90;;;;;;5054758;28;20557;-59
2021/12/12 11:18:01;;;;;;;0.60;0.40;;;5.70;99.90;;;;;;5047687;28;20458;-59
2021/12/12 11:20:39;;;;;;;0.60;0.30;;;5.70;99.90;;;;;;5052794;28;20882;-58
2021/12/12 11:23:22;;;;;;;0.70;0.33;;;5.70;99.90;;;;;;5052593;28;20951;-59
2021/12/12 11:25:55;;;;;;;0.67;0.30;;;5.70;99.90;;;;;;5049538;28;20471;-59
2021/12/12 11:28:35;;;;;;;0.50;0.30;;;5.80;99.90;;;;;;5053657;28;20912;-59
2021/12/12 11:31:13;;;;;;;0.47;0.20;;;5.80;99.90;;;;;;5053174;28;20495;-59
2021/12/12 11:33:43;;;;;;;1.00;0.40;;;5.70;99.90;;;;;;5053577;28;20486;-60
2021/12/12 11:36:14;;;;;;;0.50;0.30;;;5.70;99.90;;;;;;5054392;28;20493;-58
2021/12/12 11:38:47;;;;;;;0.90;0.40;;;5.70;99.90;;;;;;5054541;28;20483;-59
2021/12/12 11:41:20;;;;;;;0.50;0.23;;;5.70;99.90;;;;;;5053603;28;20482;-58
2021/12/12 11:44:09;;;;;;;0.70;0.40;;;5.80;99.90;;;;;;5046023;28;20532;-59
2021/12/12 11:46:43;;;;;;;0.40;0.20;;;5.80;99.90;;;;;;5034422;28;20456;-59
2021/12/12 11:49:17;;;;;;;0.53;0.30;;;5.90;99.90;;;;;;5048558;28;20542;-59
2021/12/12 11:51:50;;;;;;;0.67;0.30;;;6.00;99.90;;;;;;5052862;28;20487;-59
2021/12/12 11:54:29;;;;;;;0.60;0.30;;;6.00;99.90;;;;;;5053432;28;20453;-59
2021/12/12 11:57:06;;;;;;;1.07;0.30;;;5.90;99.90;;;;;;5054918;28;20459;-60
2021/12/12 11:59:45;;;;;;;0.60;0.27;;;5.90;99.90;;;;;;5054221;28;20478;-59
2021/12/12 12:02:31;;;;;;;0.70;0.30;;;6.00;99.90;;;;;;5051598;28;20461;-59
2021/12/12 12:05:07;;;;;;;0.73;0.30;;;6.10;99.90;;;;;;5052340;28;20462;-59
2021/12/12 12:07:51;;;;;;;0.30;0.20;;;6.10;99.90;;;;;;5053683;28;20565;-59
2021/12/12 12:10:27;;;;;;;0.60;0.30;;;6.10;99.90;;;;;;5053192;28;20822;-59
2021/12/12 12:13:21;;;;;;;0.60;0.30;;;6.00;99.90;;;;;;5053527;28;20453;-59
2021/12/12 12:15:59;;;;;;;2.07;0.40;;;6.10;99.90;;;;;;5056219;28;20486;-59
2021/12/12 12:18:35;;;;;;;0.40;0.20;;;6.10;99.90;;;;;;5054697;28;20443;-59
2021/12/12 12:21:14;;;;;;;0.40;0.20;;;6.10;99.90;;;;;;5052922;28;20550;-59
2021/12/12 12:24:11;;;;;;;0.50;0.27;;;6.10;99.90;;;;;;5054756;28;20458;-59
2021/12/12 12:26:55;;;;;;;0.53;0.30;;;6.10;99.90;;;;;;5053741;28;20454;-59
2021/12/12 12:30:07;;;;;;;0.60;0.30;;;6.10;99.90;;;;;;5055387;28;20947;-59
2021/12/12 12:33:21;;;;;;;0.53;0.30;;;6.10;99.90;;;;;;5055953;28;20490;-59
2021/12/12 12:39:50;;;;;;;0.73;0.40;;;6.20;99.90;;;;;;5129152;27;20529;-59
2021/12/12 12:43:03;;;;;;;0.80;0.30;;;6.10;99.90;;;;;;5129588;27;20491;-59
2021/12/12 12:46:19;;;;;;;0.50;0.30;;;6.10;99.90;;;;;;5076971;28;20963;-59
2021/12/12 12:49:31;;;;;;;1.03;0.40;;;6.20;99.90;;;;;;5092059;28;20834;-60
2021/12/12 12:52:40;;;;;;;0.43;0.30;;;6.30;99.90;;;;;;5108892;28;20786;-59
2021/12/12 12:56:00;;;;;;;0.90;0.33;;;6.20;99.90;;;;;;5106913;28;20935;-59
2021/12/12 12:58:44;;;;;;;1.63;0.40;;;6.20;99.90;;;;;;5085019;28;20579;-58
2021/12/12 13:01:18;;;;;;;1.83;0.50;;;6.20;99.90;;;;;;5067373;28;20438;-58
2021/12/12 13:04:08;;;;;;;0.57;0.30;;;6.30;99.90;;;;;;5084628;28;20541;-58
2021/12/12 13:07:17;;;;;;;2.07;0.27;;;6.30;99.90;;;;;;5088782;28;20556;-58
2021/12/12 13:09:50;;;;;;;0.50;0.30;;;6.30;99.90;;;;;;5117152;28;20483;-58
2021/12/12 13:12:48;;;;;;;0.57;0.30;;;6.40;99.90;;;;;;5109775;28;20472;-58
2021/12/12 13:15:31;;;;;;;0.40;0.30;;;6.40;99.90;;;;;;5107342;28;20972;-58
2021/12/12 13:18:09;;;;;;;0.40;0.20;;;6.50;99.90;;;;;;5107924;28;20487;-59
2021/12/12 13:20:46;;;;;;;0.63;0.30;;;6.50;99.90;;;;;;5109290;28;20752;-59
2021/12/12 13:23:38;;;;;;;0.50;0.30;;;6.40;99.90;;;;;;5110510;28;20790;-58
2021/12/12 13:26:14;;;;;;;0.67;0.30;;;6.40;99.90;;;;;;5110700;28;20457;-58
2021/12/12 13:28:56;;;;;;;0.70;0.40;;;6.40;99.90;;;;;;5108363;28;20459;-59
2021/12/12 13:31:39;;;;;;;0.50;0.30;;;6.40;99.90;;;;;;5106760;28;20460;-59
2021/12/12 13:34:15;;;;;;;0.50;0.30;;;6.30;99.90;;;;;;5107047;28;20505;-59
2021/12/12 13:36:55;;;;;;;0.40;0.23;;;6.40;99.90;;;;;;5110616;28;20479;-58
2021/12/12 13:39:44;;;;;;;0.60;0.30;;;6.40;99.90;;;;;;5110151;28;20840;-59
2021/12/12 13:42:23;;;;;;;0.60;0.30;;;6.40;99.90;;;;;;5105252;28;20686;-58
2021/12/12 13:45:29;;;;;;;0.60;0.23;;;6.40;99.90;;;;;;5109245;28;20469;-59
2021/12/12 13:48:11;;;;;;;0.73;0.30;;;6.40;99.90;;;;;;5047663;28;20446;-58
2021/12/12 13:50:51;;;;;;;0.70;0.30;;;6.30;99.90;;;;;;5092930;28;20457;-59
2021/12/12 13:53:39;;;;;;;0.40;0.20;;;6.30;99.90;;;;;;5096305;28;20484;-59